Time;durP1;ratioP1;P1;durP2;ratioP2;P2;SDS_P1;SDS_P2;PMS_P1;PMS_P2;Temp;Humidity;BMP_temperature;BMP_pressure;BME280_temperature;BME280_humidity;BME280_pressure;Samples;Min_cycle;Max_cycle;Signal;HPM_P1;HPM_P2
2022/06/09 00:03:16;;;;;;;0.10;0.10;;;;;;;19.53;57.04;96187.16;10409489;28;20095;-24
2022/06/09 00:08:18;;;;;;;0.00;0.00;;;;;;;19.50;57.09;96185.47;10409283;28;20060;-22
2022/06/09 00:13:19;;;;;;;0.00;0.00;;;;;;;19.50;57.17;96194.81;10409708;28;20108;-22
2022/06/09 00:18:21;;;;;;;0.08;0.08;;;;;;;19.49;57.08;96198.22;10409820;28;20112;-22
2022/06/09 00:23:21;;;;;;;0.10;0.10;;;;;;;19.49;57.08;96200.75;10408866;28;20033;-21
2022/06/09 00:28:22;;;;;;;0.10;0.10;;;;;;;19.46;57.00;96198.22;10409192;28;20032;-22
2022/06/09 00:33:22;;;;;;;0.10;0.10;;;;;;;19.47;57.34;96213.44;10424420;28;20353;-21
2022/06/09 00:38:23;;;;;;;0.10;0.10;;;;;;;19.65;57.78;96202.22;10448678;28;20067;-21
2022/06/09 00:43:24;;;;;;;0.10;0.00;;;;;;;19.76;56.94;96215.63;10422334;28;20065;-21
2022/06/09 00:48:40;;;;;;;0.00;0.00;;;;;;;19.61;57.11;96216.66;10409078;28;20061;-20
2022/06/09 00:53:42;;;;;;;0.10;0.10;;;;;;;19.54;57.15;96217.59;10470992;28;20131;-21
2022/06/09 00:58:46;;;;;;;0.10;0.10;;;;;;;19.52;57.23;96219.28;10430379;28;20554;-22
2022/06/09 01:03:54;;;;;;;0.40;0.10;;;;;;;19.44;57.20;96217.72;10407947;28;20511;-21
2022/06/09 01:09:02;;;;;;;0.00;0.00;;;;;;;19.50;57.40;96243.06;10407870;28;20526;-22
2022/06/09 01:14:04;;;;;;;0.10;0.10;;;;;;;19.49;57.12;96243.91;10407687;28;20045;-21
2022/06/09 01:19:22;;;;;;;1.35;0.08;;;;;;;19.48;57.19;96244.75;10407916;28;20511;-21
2022/06/09 01:24:53;;;;;;;0.10;0.10;;;;;;;19.40;57.26;96231.28;10408302;28;20061;-21
2022/06/09 01:30:17;;;;;;;0.10;0.10;;;;;;;19.48;57.11;96249.81;10408176;28;20044;-22
2022/06/09 01:35:47;;;;;;;0.10;0.10;;;;;;;19.66;57.91;96252.16;10438025;28;20261;-21
2022/06/09 01:40:47;;;;;;;0.22;0.20;;;;;;;19.74;57.06;96248.66;10441762;28;20045;-21
2022/06/09 01:46:03;;;;;;;0.10;0.10;;;;;;;19.62;57.33;96253.03;10408225;28;20026;-21
2022/06/09 01:51:12;;;;;;;0.10;0.10;;;;;;;19.52;57.15;96259.09;10445928;28;20040;-22
2022/06/09 01:56:22;;;;;;;0.10;0.10;;;;;;;19.51;57.05;96255.69;10486284;28;20121;-20
2022/06/09 02:01:27;;;;;;;0.00;0.00;;;;;;;19.49;57.03;96262.50;10456823;28;20024;-20
2022/06/09 02:06:31;;;;;;;0.10;0.10;;;;;;;19.49;57.15;96261.69;10426051;28;20046;-21
2022/06/09 02:11:31;;;;;;;0.03;0.03;;;;;;;19.47;57.19;96264.22;10425201;28;20036;-21
2022/06/09 02:16:32;;;;;;;0.25;0.20;;;;;;;19.47;57.16;96258.28;10455260;28;20076;-21
2022/06/09 02:21:35;;;;;;;0.10;0.10;;;;;;;19.44;56.84;96253.25;10424250;28;20091;-21
2022/06/09 02:26:36;;;;;;;0.05;0.05;;;;;;;19.46;57.08;96259.16;10424788;28;20411;-21
2022/06/09 02:31:36;;;;;;;0.00;0.00;;;;;;;19.59;58.39;96259.00;10454909;28;20037;-22
2022/06/09 02:36:37;;;;;;;0.20;0.10;;;;;;;19.73;58.07;96253.75;10453730;28;20032;-21
2022/06/09 02:41:37;;;;;;;0.00;0.00;;;;;;;19.63;57.21;96264.88;10441976;28;20524;-21
2022/06/09 02:46:37;;;;;;;0.05;0.05;;;;;;;19.57;57.18;96283.56;10412891;28;20292;-21
2022/06/09 02:51:41;;;;;;;0.00;0.00;;;;;;;19.42;57.17;96280.38;10441397;28;20090;-23
2022/06/09 02:56:43;;;;;;;0.10;0.10;;;;;;;19.51;57.19;96287.88;10480543;28;20037;-20
2022/06/09 03:01:43;;;;;;;0.10;0.10;;;;;;;19.48;57.22;96301.44;10454349;28;20068;-21
2022/06/09 03:06:44;;;;;;;2.53;0.10;;;;;;;19.48;57.25;96308.22;10427007;28;20060;-22
2022/06/09 03:11:44;;;;;;;0.20;0.10;;;;;;;19.47;57.17;96304.00;10411672;28;20083;-20
2022/06/09 03:16:45;;;;;;;0.10;0.10;;;;;;;19.46;57.05;96297.25;10411668;28;20039;-21
2022/06/09 03:21:45;;;;;;;0.08;0.08;;;;;;;19.45;57.08;96311.66;10411529;28;20033;-22
2022/06/09 03:26:46;;;;;;;0.17;0.10;;;;;;;19.41;58.26;96311.69;10410967;28;20033;-25
2022/06/09 03:31:47;;;;;;;0.20;0.00;;;;;;;19.66;58.06;96315.66;10414144;28;20654;-22
2022/06/09 03:36:48;;;;;;;0.10;0.10;;;;;;;19.66;57.57;96320.75;10426536;28;20500;-21
2022/06/09 03:41:48;;;;;;;0.00;0.00;;;;;;;19.56;57.13;96325.06;10411733;28;20115;-23
2022/06/09 03:46:49;;;;;;;0.10;0.10;;;;;;;19.51;57.09;96344.56;10410903;28;20494;-21
2022/06/09 03:51:49;;;;;;;0.10;0.10;;;;;;;19.49;57.27;96348.00;10451533;28;20039;-22
2022/06/09 03:56:51;;;;;;;0.10;0.10;;;;;;;19.47;57.28;96349.69;10477308;28;20036;-21
2022/06/09 04:01:51;;;;;;;0.00;0.00;;;;;;;19.45;57.14;96354.81;10452073;28;20045;-20
2022/06/09 04:06:52;;;;;;;0.13;0.13;;;;;;;19.46;57.28;96358.16;10427333;28;20029;-20
2022/06/09 04:11:52;;;;;;;0.10;0.10;;;;;;;19.44;57.18;96364.97;10409465;28;20045;-27
2022/06/09 04:16:55;;;;;;;0.10;0.10;;;;;;;19.43;57.10;96368.38;10409937;28;20041;-23
2022/06/09 04:21:56;;;;;;;0.10;0.10;;;;;;;19.45;57.34;96382.75;10409267;28;20280;-21
2022/06/09 04:26:56;;;;;;;0.10;0.10;;;;;;;19.62;58.16;96372.41;10409144;28;20037;-21
2022/06/09 04:31:57;;;;;;;0.00;0.00;;;;;;;19.69;57.34;96382.47;10413486;28;20037;-20
2022/06/09 04:36:57;;;;;;;0.50;0.20;;;;;;;19.58;57.10;96398.69;10432977;28;20037;-21
2022/06/09 04:41:57;;;;;;;0.17;0.17;;;;;;;19.51;57.28;96402.97;10408869;28;20040;-22
2022/06/09 04:46:58;;;;;;;0.10;0.10;;;;;;;19.49;57.17;96414.84;10408194;28;20025;-21
2022/06/09 04:51:58;;;;;;;0.20;0.10;;;;;;;19.47;57.29;96415.72;10441904;28;20041;-20
2022/06/09 04:56:58;;;;;;;0.17;0.17;;;;;;;19.46;57.08;96424.19;10459482;28;20044;-24
2022/06/09 05:01:59;;;;;;;0.10;0.10;;;;;;;19.45;57.24;96418.28;10408159;28;20069;-21
2022/06/09 05:06:59;;;;;;;0.10;0.00;;;;;;;19.45;57.11;96425.03;10433980;28;20048;-21
2022/06/09 05:11:59;;;;;;;0.00;0.00;;;;;;;19.44;57.27;96433.50;10433313;28;20041;-21
2022/06/09 05:17:00;;;;;;;0.23;0.20;;;;;;;19.42;57.21;96428.44;10407592;28;20029;-21
2022/06/09 05:22:00;;;;;;;0.10;0.10;;;;;;;19.55;58.36;96436.78;10445460;28;20408;-21
2022/06/09 05:27:00;;;;;;;0.10;0.10;;;;;;;19.69;58.61;96447.69;10441633;28;20029;-20
2022/06/09 05:32:02;;;;;;;0.03;0.00;;;;;;;19.64;57.40;96464.66;10420582;28;20033;-21
2022/06/09 05:37:03;;;;;;;0.00;0.00;;;;;;;19.53;57.16;96457.16;10434055;28;20030;-21
2022/06/09 05:47:23;;;;;;;0.08;0.08;;;;;;;19.46;57.21;96473.28;10415506;28;20065;-21
2022/06/09 05:52:27;;;;;;;0.20;0.10;;;;;;;19.45;57.22;96465.66;10415076;28;20056;-21
2022/06/09 05:57:27;;;;;;;0.08;0.08;;;;;;;19.44;57.31;96479.22;10415063;28;20553;-21
2022/06/09 06:02:28;;;;;;;0.20;0.20;;;;;;;19.43;57.08;96475.00;10414749;28;20112;-23
2022/06/09 06:07:28;;;;;;;0.00;0.00;;;;;;;19.42;56.95;96479.22;10414539;28;20551;-22
2022/06/09 06:12:28;;;;;;;0.20;0.10;;;;;;;19.43;57.11;96485.97;10414226;28;20348;-22
2022/06/09 06:17:29;;;;;;;0.13;0.13;;;;;;;19.43;57.43;96493.59;10414742;28;20281;-20
2022/06/09 06:22:29;;;;;;;0.10;0.10;;;;;;;19.62;58.00;96487.53;10442710;28;20783;-21
2022/06/09 06:27:30;;;;;;;0.00;0.00;;;;;;;19.65;57.73;96496.81;10435185;28;20026;-20
2022/06/09 06:32:30;;;;;;;0.00;0.00;;;;;;;19.53;57.67;96496.91;10421555;28;20087;-22
2022/06/09 06:37:30;;;;;;;0.10;0.00;;;;;;;19.48;57.20;96503.72;10421353;28;20033;-21
2022/06/09 06:42:31;;;;;;;0.27;0.20;;;;;;;19.46;57.31;96510.50;10413798;28;20040;-21
2022/06/09 06:47:31;;;;;;;0.10;0.10;;;;;;;19.44;57.27;96524.91;10413396;28;20044;-20
2022/06/09 06:52:31;;;;;;;0.20;0.20;;;;;;;19.43;56.97;96543.53;10466902;28;20457;-20
2022/06/09 06:57:33;;;;;;;0.00;0.00;;;;;;;19.44;57.20;96573.16;10474373;28;20509;-20
2022/06/09 07:02:33;;;;;;;0.10;0.10;;;;;;;19.42;57.06;96585.03;10453740;28;20120;-21
2022/06/09 07:07:35;;;;;;;0.07;0.07;;;;;;;19.42;57.25;96590.09;10415440;28;20120;-21
2022/06/09 07:12:36;;;;;;;0.10;0.00;;;;;;;19.33;57.16;96575.75;10412465;28;20057;-21
2022/06/09 07:17:37;;;;;;;0.00;0.00;;;;;;;19.50;58.03;96594.25;10411837;28;20544;-21
2022/06/09 07:22:37;;;;;;;0.30;0.20;;;;;;;19.68;58.72;96593.31;10411736;28;20164;-21
2022/06/09 07:27:38;;;;;;;0.10;0.10;;;;;;;19.59;57.34;96593.38;10431876;28;20037;-21
2022/06/09 07:32:38;;;;;;;0.10;0.10;;;;;;;19.49;57.26;96586.69;10452496;28;20415;-21
2022/06/09 07:37:38;;;;;;;0.10;0.10;;;;;;;19.46;57.25;96586.69;10427760;28;20292;-21
2022/06/09 07:42:40;;;;;;;0.00;0.00;;;;;;;19.42;57.20;96585.03;10409419;28;20060;-21
2022/06/09 07:47:40;;;;;;;0.15;0.10;;;;;;;19.40;57.20;96596.84;10410338;28;20550;-22
2022/06/09 07:52:41;;;;;;;0.50;0.13;;;;;;;19.40;57.13;96594.31;10455069;28;20052;-22
2022/06/09 07:57:43;;;;;;;0.10;0.10;;;;;;;19.38;57.32;96583.34;10450006;28;20290;-21
2022/06/09 08:02:43;;;;;;;0.10;0.10;;;;;;;19.39;57.24;96590.09;10410090;28;20041;-21
2022/06/09 08:07:44;;;;;;;0.08;0.08;;;;;;;19.39;57.11;96597.72;10409373;28;20451;-22
2022/06/09 08:12:47;;;;;;;0.10;0.10;;;;;;;19.39;57.45;96605.31;10409240;28;20407;-22
2022/06/09 08:17:47;;;;;;;0.08;0.08;;;;;;;19.58;58.07;96599.31;10409891;28;20037;-21
2022/06/09 08:22:48;;;;;;;0.00;0.00;;;;;;;19.65;57.53;96598.41;10409074;28;20448;-21
2022/06/09 08:27:48;;;;;;;0.00;0.00;;;;;;;19.52;57.25;96596.81;10408781;28;20029;-20
2022/06/09 08:32:49;;;;;;;0.10;0.10;;;;;;;19.46;57.05;96596.84;10420105;28;20033;-21
2022/06/09 08:37:51;;;;;;;0.10;0.10;;;;;;;19.43;57.24;96586.72;10448824;28;20127;-22
2022/06/09 08:43:10;;;;;;;0.30;0.20;;;;;;;19.41;57.09;96586.69;10426660;28;20029;-21
2022/06/09 08:48:20;;;;;;;0.57;0.20;;;;;;;19.38;57.15;96588.41;10410253;28;20033;-22
2022/06/09 08:53:28;;;;;;;0.20;0.20;;;;;;;19.37;57.13;96589.28;10466083;28;20490;-21
2022/06/09 08:58:37;;;;;;;0.10;0.10;;;;;;;19.39;57.14;96585.03;10436629;28;20045;-21
2022/06/09 09:03:41;;;;;;;0.30;0.30;;;;;;;19.38;57.22;96588.41;10410797;28;20033;-20
2022/06/09 09:08:42;;;;;;;0.00;0.00;;;;;;;19.37;57.12;96595.22;10410314;28;20034;-21
2022/06/09 09:14:00;;;;;;;0.40;0.15;;;;;;;19.52;57.88;96592.56;10438233;28;20037;-22
2022/06/09 09:19:39;;;;;;;0.10;0.10;;;;;;;19.68;57.83;96603.47;10451502;28;20044;-21
2022/06/09 09:24:54;;;;;;;0.45;0.10;;;;;;;19.53;57.15;96595.94;10421958;28;20045;-21
2022/06/09 09:30:12;;;;;;;0.10;0.10;;;;;;;19.46;57.21;96600.22;10411348;28;20045;-21
2022/06/09 09:35:35;;;;;;;0.00;0.00;;;;;;;19.43;57.20;96599.41;10419990;28;20045;-21
2022/06/09 09:40:44;;;;;;;0.10;0.10;;;;;;;19.41;57.24;96598.56;10411072;28;20180;-21
2022/06/09 09:45:56;;;;;;;0.25;0.10;;;;;;;19.40;57.19;96601.94;10410395;28;20037;-21
2022/06/09 09:51:06;;;;;;;0.35;0.10;;;;;;;19.40;57.12;96617.16;10427179;28;20035;-21
2022/06/09 09:56:16;;;;;;;0.10;0.10;;;;;;;19.39;57.35;96615.47;10474834;28;20045;-21
2022/06/09 10:01:16;;;;;;;0.10;0.10;;;;;;;19.38;57.21;96626.50;10409473;28;20065;-23
2022/06/09 10:11:56;;;;;;;;;;;;;;;19.43;58.21;96617.16;10416722;28;20040;-21
2022/06/09 10:16:57;;;;;;;0.20;0.20;;;;;;;19.64;58.27;96627.19;10416014;28;19924;-20
2022/06/09 10:22:01;;;;;;;0.00;0.00;;;;;;;19.57;57.37;96641.63;10416247;28;20033;-21
2022/06/09 10:27:02;;;;;;;0.05;0.05;;;;;;;19.47;57.13;96645.06;10431023;28;20115;-21
2022/06/09 10:32:10;;;;;;;0.10;0.10;;;;;;;19.43;57.20;96648.47;10458021;28;20024;-22
2022/06/09 10:37:33;;;;;;;0.10;0.10;;;;;;;19.36;57.26;96658.66;10421747;28;20039;-21
2022/06/09 10:42:43;;;;;;;0.00;0.00;;;;;;;19.42;57.20;96689.13;10434261;28;20037;-21
2022/06/09 10:59:40;;;;;;;0.10;0.10;;;;;;;19.36;57.29;96744.97;10416405;28;20045;-21
2022/06/09 11:04:41;;;;;;;0.45;0.20;;;;;;;19.36;57.23;96732.28;10411927;28;20060;-21
2022/06/09 11:09:59;;;;;;;0.10;0.10;;;;;;;19.48;58.19;96722.94;10412553;28;20030;-21
2022/06/09 11:15:02;;;;;;;0.17;0.10;;;;;;;19.64;58.16;96698.31;10411307;28;20041;-22
2022/06/09 11:20:12;;;;;;;0.10;0.10;;;;;;;19.52;57.28;96693.28;10412294;28;20531;-22
2022/06/09 11:25:49;;;;;;;0.10;0.10;;;;;;;19.40;57.29;96693.34;10451585;28;20063;-20
2022/06/09 11:30:57;;;;;;;;;;;;;;;19.41;57.14;96705.22;10411861;28;20037;-22
2022/06/09 11:35:58;;;;;;;0.17;0.10;;;;;;;19.37;57.28;96709.44;10421309;28;19920;-22
2022/06/09 11:41:20;;;;;;;0.00;0.00;;;;;;;19.35;57.24;96715.38;10417184;28;20022;-21
2022/06/09 11:46:32;;;;;;;0.22;0.22;;;;;;;19.37;57.25;96716.19;10451411;28;20071;-21
2022/06/09 11:51:35;;;;;;;0.43;0.25;;;;;;;19.36;57.23;96704.38;10456236;28;20536;-21
2022/06/09 11:56:40;;;;;;;0.20;0.10;;;;;;;19.35;57.27;96707.75;10467951;28;20511;-22
2022/06/09 12:02:07;;;;;;;0.10;0.10;;;;;;;19.35;57.19;96720.44;10410763;28;20488;-22
2022/06/09 12:07:37;;;;;;;0.10;0.10;;;;;;;19.50;57.90;96711.06;10444447;28;20037;-20
2022/06/09 12:12:44;;;;;;;0.10;0.10;;;;;;;19.64;58.10;96713.53;10430481;28;20148;-22
2022/06/09 12:18:06;;;;;;;0.03;0.00;;;;;;;19.54;57.17;96714.44;10409695;28;20033;-21
2022/06/09 12:23:41;;;;;;;0.10;0.10;;;;;;;19.38;57.11;96700.13;10410038;28;20088;-22
2022/06/09 12:28:58;;;;;;;0.00;0.00;;;;;;;19.39;57.41;96709.41;10408994;28;20038;-22
2022/06/09 12:34:00;;;;;;;0.10;0.10;;;;;;;19.31;57.17;96706.06;10429399;28;20068;-21
2022/06/09 12:39:04;;;;;;;0.10;0.10;;;;;;;19.36;57.26;96717.06;10414784;28;20458;-21
2022/06/09 12:44:17;;;;;;;0.00;0.00;;;;;;;19.36;57.18;96722.13;10440050;28;20090;-21
2022/06/09 12:49:23;;;;;;;0.10;0.10;;;;;;;19.28;57.05;96717.09;10450378;28;20445;-20
2022/06/09 12:54:36;;;;;;;0.10;0.05;;;;;;;19.34;57.31;96728.91;10483385;28;20040;-22
2022/06/09 12:59:39;;;;;;;0.10;0.10;;;;;;;19.31;57.00;96736.53;10416198;28;20057;-22
2022/06/09 13:05:01;;;;;;;0.30;0.10;;;;;;;19.44;58.30;96741.56;10407779;28;20036;-21
2022/06/09 13:10:19;;;;;;;0.20;0.10;;;;;;;19.62;58.11;96755.88;10408000;28;20110;-27
2022/06/09 13:15:33;;;;;;;0.10;0.10;;;;;;;19.55;57.38;96752.53;10407639;28;20067;-22
2022/06/09 13:20:34;;;;;;;0.40;0.15;;;;;;;19.46;57.06;96759.34;10407980;28;20030;-20
2022/06/09 13:25:34;;;;;;;0.10;0.00;;;;;;;19.42;57.17;96752.59;10408030;28;20037;-22
2022/06/09 13:30:49;;;;;;;0.00;0.00;;;;;;;19.40;57.38;96733.94;10407246;28;20484;-23
2022/06/09 13:35:53;;;;;;;0.10;0.03;;;;;;;19.38;57.14;96748.34;10441778;28;20048;-21
2022/06/09 13:40:59;;;;;;;0.10;0.10;;;;;;;19.37;57.26;96760.22;10442478;28;20029;-22
2022/06/09 13:46:22;;;;;;;0.43;0.20;;;;;;;19.37;57.36;96751.75;10415483;28;20033;-21
2022/06/09 13:51:22;;;;;;;0.05;0.05;;;;;;;19.35;57.19;96756.00;10414958;28;20029;-21
2022/06/09 13:56:22;;;;;;;0.20;0.20;;;;;;;19.36;57.31;96762.75;10414147;28;20052;-21
2022/06/09 14:01:23;;;;;;;0.13;0.10;;;;;;;19.36;57.75;96758.53;10414913;28;20053;-22
2022/06/09 14:06:23;;;;;;;0.05;0.03;;;;;;;19.56;58.43;96763.53;10424406;28;20072;-21
2022/06/09 14:11:28;;;;;;;0.10;0.10;;;;;;;19.63;57.08;96752.50;10445597;28;20446;-21
2022/06/09 14:16:33;;;;;;;0.57;0.00;;;;;;;19.50;57.03;96764.41;10414353;28;20120;-21
2022/06/09 14:21:34;;;;;;;0.10;0.10;;;;;;;19.44;57.47;96766.13;10415071;28;20052;-21
2022/06/09 14:26:36;;;;;;;0.47;0.10;;;;;;;19.41;57.14;96768.69;10414311;28;20040;-23
2022/06/09 14:31:36;;;;;;;0.00;0.00;;;;;;;19.39;57.39;96767.81;10415262;28;20038;-20
2022/06/09 14:36:37;;;;;;;0.00;0.00;;;;;;;19.39;57.42;96770.34;10425706;28;20488;-24
2022/06/09 14:41:38;;;;;;;0.10;0.00;;;;;;;19.38;57.38;96761.03;10413574;28;20849;-23
2022/06/09 14:46:45;;;;;;;0.20;0.10;;;;;;;19.38;57.29;96773.75;10413050;28;20033;-22
2022/06/09 14:51:47;;;;;;;0.00;0.00;;;;;;;19.36;57.11;96772.91;10414808;28;20029;-23
2022/06/09 14:56:48;;;;;;;0.10;0.10;;;;;;;19.36;57.34;96778.00;10412475;28;20084;-22
2022/06/09 15:01:48;;;;;;;0.10;0.10;;;;;;;19.46;58.36;96794.88;10413477;28;20095;-22
2022/06/09 15:06:49;;;;;;;0.00;0.00;;;;;;;19.62;58.23;96799.06;10432974;28;20054;-22
2022/06/09 15:11:50;;;;;;;0.00;0.00;;;;;;;19.57;57.64;96804.16;10438979;28;20092;-23
2022/06/09 15:16:50;;;;;;;0.00;0.00;;;;;;;19.46;57.15;96822.81;10412344;28;20034;-25
2022/06/09 15:21:51;;;;;;;0.20;0.10;;;;;;;19.41;57.41;96824.53;10412275;28;20037;-23
2022/06/09 15:26:52;;;;;;;0.40;0.20;;;;;;;19.38;57.29;96834.69;10424743;28;20032;-21
2022/06/09 15:31:52;;;;;;;0.10;0.10;;;;;;;19.19;57.39;96822.88;10452978;28;20585;-23
2022/06/09 15:36:53;;;;;;;0.13;0.10;;;;;;;19.34;57.37;96845.69;10422929;28;20511;-23
2022/06/09 15:41:53;;;;;;;0.10;0.10;;;;;;;19.34;57.28;96855.84;10411041;28;20434;-24
2022/06/09 15:46:54;;;;;;;0.10;0.10;;;;;;;19.33;57.37;96859.25;10410919;28;20041;-23
2022/06/09 15:51:54;;;;;;;0.13;0.10;;;;;;;19.33;57.29;96874.47;10443429;28;20398;-22
2022/06/09 15:56:55;;;;;;;0.00;0.00;;;;;;;19.32;57.35;96877.84;10463038;28;20163;-22
2022/06/09 16:02:08;;;;;;;0.10;0.10;;;;;;;19.51;58.21;96884.59;10410514;28;20033;-24
2022/06/09 16:07:12;;;;;;;0.00;0.00;;;;;;;19.62;57.42;96891.38;10410155;28;20594;-22
2022/06/09 16:12:15;;;;;;;0.10;0.00;;;;;;;19.49;57.28;96891.38;10410191;28;20045;-23
2022/06/09 16:17:15;;;;;;;0.10;0.10;;;;;;;19.41;57.18;96891.38;10409838;28;20235;-22
2022/06/09 16:22:16;;;;;;;0.05;0.05;;;;;;;19.37;57.37;96897.31;10409764;28;20406;-22
2022/06/09 16:27:16;;;;;;;0.10;0.00;;;;;;;19.31;57.29;96901.53;10409468;28;20057;-23
2022/06/09 16:32:17;;;;;;;0.50;0.10;;;;;;;19.35;57.25;96908.31;10416309;28;20037;-23
2022/06/09 16:37:17;;;;;;;0.10;0.10;;;;;;;19.34;57.27;96915.06;10426551;28;20333;-22
2022/06/09 16:42:20;;;;;;;0.03;0.03;;;;;;;19.33;57.25;96920.19;10408829;28;20063;-23
2022/06/09 16:47:20;;;;;;;0.45;0.30;;;;;;;19.33;57.29;96915.94;10408913;28;20678;-24
2022/06/09 16:52:20;;;;;;;0.07;0.07;;;;;;;19.32;57.34;96919.31;10447920;28;20041;-22
2022/06/09 16:57:21;;;;;;;0.10;0.00;;;;;;;19.42;58.49;96925.25;10454536;28;20038;-23
2022/06/09 17:02:21;;;;;;;0.00;0.00;;;;;;;19.59;58.29;96928.63;10408982;28;20063;-22
2022/06/09 17:07:22;;;;;;;0.10;0.10;;;;;;;19.57;57.61;96931.16;10408185;28;20453;-22
2022/06/09 17:12:22;;;;;;;0.20;0.10;;;;;;;19.26;57.17;96911.69;10408219;28;20496;-22
2022/06/09 17:17:23;;;;;;;1.25;0.10;;;;;;;19.41;57.37;96948.94;10412073;28;20216;-23
2022/06/09 17:22:23;;;;;;;0.20;0.10;;;;;;;19.38;57.54;96948.94;10416432;28;20086;-22
2022/06/09 17:27:24;;;;;;;0.10;0.10;;;;;;;19.35;57.37;96956.56;10417094;28;20319;-23
2022/06/09 17:32:25;;;;;;;0.10;0.10;;;;;;;19.34;57.30;96955.69;10424349;28;20045;-22
2022/06/09 17:37:26;;;;;;;0.08;0.00;;;;;;;19.33;57.47;96955.72;10437031;28;20047;-23
2022/06/09 17:42:28;;;;;;;0.10;0.10;;;;;;;19.33;57.23;96961.63;10415591;28;20099;-22
2022/06/09 17:47:29;;;;;;;0.10;0.10;;;;;;;19.32;57.28;96969.22;10415728;28;20100;-23
2022/06/09 17:52:29;;;;;;;0.10;0.10;;;;;;;19.32;57.21;96969.22;10459979;28;20119;-21
2022/06/09 17:57:30;;;;;;;0.20;0.03;;;;;;;19.47;58.04;96976.84;10476392;28;20044;-22
2022/06/09 18:02:30;;;;;;;0.40;0.10;;;;;;;19.54;58.57;96970.94;10456592;28;20041;-22
2022/06/09 18:07:30;;;;;;;0.10;0.10;;;;;;;19.51;57.05;96983.66;10417887;28;20025;-22
2022/06/09 18:12:31;;;;;;;0.10;0.10;;;;;;;19.41;57.28;96984.50;10433094;28;20322;-21
2022/06/09 18:17:32;;;;;;;0.32;0.10;;;;;;;19.38;57.36;96979.41;10455752;28;20548;-22
2022/06/09 18:22:32;;;;;;;0.10;0.10;;;;;;;19.34;57.43;96992.94;10428492;28;20159;-22
2022/06/09 18:27:33;;;;;;;0.00;0.00;;;;;;;19.32;57.35;97000.56;10432473;28;20035;-22
2022/06/09 18:32:33;;;;;;;0.10;0.10;;;;;;;19.31;57.26;97001.41;10454933;28;20565;-22
2022/06/09 18:37:34;;;;;;;0.10;0.10;;;;;;;19.31;57.26;97003.94;10454323;28;20044;-22
2022/06/09 18:42:40;;;;;;;0.10;0.00;;;;;;;19.32;57.14;97017.47;10434075;28;20397;-22
2022/06/09 18:47:40;;;;;;;0.40;0.15;;;;;;;19.31;57.21;97020.84;10413666;28;20083;-23
2022/06/09 18:52:41;;;;;;;0.13;0.10;;;;;;;19.31;56.97;97023.38;10467247;28;20113;-22
2022/06/09 18:57:41;;;;;;;0.33;0.20;;;;;;;19.50;58.60;97035.28;10452997;28;20041;-22
2022/06/09 19:02:42;;;;;;;0.08;0.08;;;;;;;19.63;58.43;97036.97;10412913;28;20849;-22
2022/06/09 19:07:43;;;;;;;0.13;0.10;;;;;;;19.48;57.13;97034.41;10412308;28;20025;-21
2022/06/09 19:12:44;;;;;;;0.08;0.08;;;;;;;19.39;57.34;97047.09;10432342;28;20741;-23
2022/06/09 19:17:47;;;;;;;0.10;0.10;;;;;;;19.35;57.19;97050.50;10452997;28;20045;-23
2022/06/09 19:22:48;;;;;;;0.05;0.05;;;;;;;19.29;57.40;97063.16;10418741;28;20065;-22
2022/06/09 19:27:49;;;;;;;0.10;0.10;;;;;;;19.33;57.29;97073.31;10411580;28;20033;-23
2022/06/09 19:32:50;;;;;;;0.10;0.10;;;;;;;19.32;57.42;97069.09;10422999;28;20475;-22
2022/06/09 19:37:50;;;;;;;0.10;0.10;;;;;;;19.31;57.35;97069.94;10417395;28;20455;-23
2022/06/09 19:42:51;;;;;;;0.55;0.10;;;;;;;19.29;57.51;97074.19;10410952;28;20112;-22
2022/06/09 19:47:54;;;;;;;0.00;0.00;;;;;;;19.30;57.42;97087.72;10410804;28;20095;-22
2022/06/09 19:52:55;;;;;;;1.00;0.20;;;;;;;19.32;58.09;97097.03;10459798;28;20127;-22
2022/06/09 19:57:55;;;;;;;0.25;0.10;;;;;;;19.48;58.71;97100.44;10446686;28;20462;-22
2022/06/09 20:02:59;;;;;;;0.10;0.10;;;;;;;19.59;57.54;97108.94;10410926;28;20033;-22
2022/06/09 20:07:59;;;;;;;0.17;0.00;;;;;;;19.45;57.21;97120.75;10452028;28;20032;-22
2022/06/09 20:13:03;;;;;;;0.40;0.20;;;;;;;19.38;57.23;97126.66;10427744;28;20526;-22
2022/06/09 20:18:05;;;;;;;0.00;0.00;;;;;;;19.35;57.60;97140.19;10409625;28;20369;-32
2022/06/09 20:23:07;;;;;;;0.20;0.20;;;;;;;19.33;57.51;97149.50;10409406;28;20480;-22
2022/06/09 20:28:12;;;;;;;0.22;0.13;;;;;;;19.32;57.50;97149.47;10409532;28;20026;-22
2022/06/09 20:33:13;;;;;;;0.00;0.00;;;;;;;19.29;57.47;97152.88;10423198;28;20045;-22
2022/06/09 20:38:25;;;;;;;0.57;0.17;;;;;;;19.31;57.39;97165.56;10449300;28;20045;-24
2022/06/09 20:43:27;;;;;;;0.10;0.10;;;;;;;19.31;57.29;97170.63;10423062;28;20036;-22
2022/06/09 20:48:37;;;;;;;0.10;0.10;;;;;;;19.30;57.32;97163.88;10409597;28;20045;-23
2022/06/09 20:53:39;;;;;;;0.13;0.13;;;;;;;19.42;58.48;97174.09;10469001;28;20268;-23
2022/06/09 20:58:40;;;;;;;0.57;0.10;;;;;;;19.58;58.60;97183.47;10432351;28;20328;-22
2022/06/09 21:03:41;;;;;;;0.00;0.00;;;;;;;19.48;57.37;97174.94;10408936;28;20033;-23
2022/06/09 21:08:41;;;;;;;0.20;0.10;;;;;;;19.37;57.35;97181.69;10408334;28;20033;-23
2022/06/09 21:19:01;;;;;;;0.00;0.00;;;;;;;19.32;57.35;97192.63;10449670;28;20068;-23
2022/06/09 21:24:03;;;;;;;0.00;0.00;;;;;;;19.32;57.35;97207.88;10417277;28;20122;-23
2022/06/09 21:29:04;;;;;;;0.43;0.10;;;;;;;19.31;57.41;97212.13;10439162;28;20112;-21
2022/06/09 21:34:05;;;;;;;0.28;0.20;;;;;;;19.30;57.27;97204.50;10449412;28;20049;-22
2022/06/09 21:39:06;;;;;;;0.17;0.10;;;;;;;19.30;57.60;97212.09;10414504;28;20192;-22
2022/06/09 21:44:06;;;;;;;0.10;0.10;;;;;;;19.29;57.45;97210.41;10407698;28;20349;-22
2022/06/09 21:49:06;;;;;;;0.10;0.10;;;;;;;19.31;57.82;97213.78;10407775;28;20729;-22
2022/06/09 21:54:07;;;;;;;0.67;0.13;;;;;;;19.49;58.64;97216.44;10476879;28;20036;-22
2022/06/09 21:59:07;;;;;;;0.30;0.00;;;;;;;19.57;57.45;97219.81;10423994;28;20041;-22
2022/06/09 22:04:07;;;;;;;0.27;0.10;;;;;;;19.44;57.32;97228.25;10410831;28;20280;-23
2022/06/09 22:09:08;;;;;;;0.10;0.10;;;;;;;19.37;57.42;97226.53;10415015;28;20484;-22
2022/06/09 22:14:09;;;;;;;0.20;0.10;;;;;;;19.32;57.48;97226.50;10414714;28;20116;-22
2022/06/09 22:19:09;;;;;;;0.10;0.10;;;;;;;19.31;57.54;97237.50;10414298;28;20040;-23
2022/06/09 22:24:10;;;;;;;1.07;0.13;;;;;;;19.30;57.67;97234.94;10414253;28;20041;-24
2022/06/09 22:29:10;;;;;;;0.20;0.10;;;;;;;19.29;57.33;97228.19;10446604;28;20091;-22
2022/06/09 22:34:11;;;;;;;0.30;0.20;;;;;;;19.29;57.42;97238.34;10446598;28;20037;-22
2022/06/09 22:39:11;;;;;;;0.23;0.10;;;;;;;19.28;57.48;97237.50;10413339;28;20479;-23
2022/06/09 22:44:11;;;;;;;0.00;0.00;;;;;;;19.28;57.56;97239.19;10413210;28;20096;-22
2022/06/09 22:49:13;;;;;;;0.10;0.10;;;;;;;19.31;58.76;97241.72;10413268;28;20622;-22
2022/06/09 22:54:14;;;;;;;1.38;0.10;;;;;;;19.51;59.41;97240.97;10483724;28;20047;-25
2022/06/09 22:59:14;;;;;;;0.10;0.10;;;;;;;19.52;57.41;97241.84;10460531;28;20518;-23
2022/06/09 23:04:15;;;;;;;0.45;0.10;;;;;;;19.38;57.54;97246.84;10440640;28;20500;-24
2022/06/09 23:09:15;;;;;;;0.10;0.10;;;;;;;19.36;57.63;97255.31;10412613;28;20086;-22
2022/06/09 23:14:16;;;;;;;0.10;0.10;;;;;;;19.32;57.35;97256.13;10444878;28;20037;-22
2022/06/09 23:19:16;;;;;;;0.10;0.10;;;;;;;19.30;57.63;97255.25;10453697;28;20066;-23
2022/06/09 23:24:17;;;;;;;0.13;0.13;;;;;;;19.29;57.58;97256.09;10417283;28;20045;-24
2022/06/09 23:29:17;;;;;;;0.65;0.20;;;;;;;19.28;57.40;97255.28;10412175;28;20036;-23
2022/06/09 23:34:17;;;;;;;0.27;0.27;;;;;;;19.27;57.53;97251.00;10435167;28;20047;-22
2022/06/09 23:39:18;;;;;;;0.03;0.03;;;;;;;19.26;57.33;97251.84;10413718;28;20554;-22
2022/06/09 23:45:30;;;;;;;0.10;0.10;;;;;;;19.27;57.53;97256.09;10444533;28;20563;-22
2022/06/09 23:49:38;;;;;;;0.10;0.10;;;;;;;19.40;58.54;97251.91;10444425;28;20463;-22
2022/06/09 23:54:39;;;;;;;1.67;0.73;;;;;;;19.55;59.55;97257.06;10488491;28;20060;-22
2022/06/09 23:59:39;;;;;;;0.17;0.10;;;;;;;19.46;57.44;97267.19;10417926;28;20030;-22
